sensor_id;sensor_type;location;lat;lon;timestamp;temperature;humidity
21502;DHT22;27639;48.674;9.242;2023-05-07T00:01:24;19.00;53.70
21502;DHT22;27639;48.674;9.242;2023-05-07T00:03:49;19.00;53.70
21502;DHT22;27639;48.674;9.242;2023-05-07T00:06:15;19.00;53.70
21502;DHT22;27639;48.674;9.242;2023-05-07T00:08:40;19.00;53.80
21502;DHT22;27639;48.674;9.242;2023-05-07T00:11:06;18.90;53.80
21502;DHT22;27639;48.674;9.242;2023-05-07T00:13:31;18.90;53.80
21502;DHT22;27639;48.674;9.242;2023-05-07T00:16:03;18.80;53.90
21502;DHT22;27639;48.674;9.242;2023-05-07T00:18:29;18.70;54.10
21502;DHT22;27639;48.674;9.242;2023-05-07T00:20:55;18.70;54.20
21502;DHT22;27639;48.674;9.242;2023-05-07T00:23:21;18.70;54.20
21502;DHT22;27639;48.674;9.242;2023-05-07T00:25:47;18.70;54.30
21502;DHT22;27639;48.674;9.242;2023-05-07T00:28:13;18.70;54.40
21502;DHT22;27639;48.674;9.242;2023-05-07T00:30:38;18.60;54.50
21502;DHT22;27639;48.674;9.242;2023-05-07T00:33:04;18.60;54.70
21502;DHT22;27639;48.674;9.242;2023-05-07T00:35:30;18.60;54.80
21502;DHT22;27639;48.674;9.242;2023-05-07T00:37:55;18.50;54.70
21502;DHT22;27639;48.674;9.242;2023-05-07T00:40:21;18.50;54.80
21502;DHT22;27639;48.674;9.242;2023-05-07T00:42:48;18.50;54.90
21502;DHT22;27639;48.674;9.242;2023-05-07T00:45:15;18.40;54.90
21502;DHT22;27639;48.674;9.242;2023-05-07T00:47:41;18.40;55.00
21502;DHT22;27639;48.674;9.242;2023-05-07T00:50:08;18.40;55.00
21502;DHT22;27639;48.674;9.242;2023-05-07T00:52:35;18.40;55.00
21502;DHT22;27639;48.674;9.242;2023-05-07T00:55:04;18.40;55.00
21502;DHT22;27639;48.674;9.242;2023-05-07T00:57:35;18.40;55.00
21502;DHT22;27639;48.674;9.242;2023-05-07T01:00:02;18.40;55.10
21502;DHT22;27639;48.674;9.242;2023-05-07T01:02:28;18.40;55.10
21502;DHT22;27639;48.674;9.242;2023-05-07T01:04:55;18.40;55.00
21502;DHT22;27639;48.674;9.242;2023-05-07T01:07:21;18.40;55.00
21502;DHT22;27639;48.674;9.242;2023-05-07T01:09:47;18.40;55.10
21502;DHT22;27639;48.674;9.242;2023-05-07T01:12:13;18.40;55.10
21502;DHT22;27639;48.674;9.242;2023-05-07T01:14:39;18.40;55.20
21502;DHT22;27639;48.674;9.242;2023-05-07T01:17:04;18.30;55.10
21502;DHT22;27639;48.674;9.242;2023-05-07T01:19:30;18.40;55.30
21502;DHT22;27639;48.674;9.242;2023-05-07T01:22:02;18.30;55.20
21502;DHT22;27639;48.674;9.242;2023-05-07T01:24:30;18.30;55.20
21502;DHT22;27639;48.674;9.242;2023-05-07T01:26:55;18.30;55.30
21502;DHT22;27639;48.674;9.242;2023-05-07T01:29:21;18.20;55.40
21502;DHT22;27639;48.674;9.242;2023-05-07T01:31:47;18.20;55.40
21502;DHT22;27639;48.674;9.242;2023-05-07T01:34:14;18.10;55.40
21502;DHT22;27639;48.674;9.242;2023-05-07T01:36:43;18.10;55.40
21502;DHT22;27639;48.674;9.242;2023-05-07T01:39:10;18.10;55.40
21502;DHT22;27639;48.674;9.242;2023-05-07T01:41:36;18.10;55.60
21502;DHT22;27639;48.674;9.242;2023-05-07T01:44:03;18.10;55.60
21502;DHT22;27639;48.674;9.242;2023-05-07T01:46:29;18.00;55.50
21502;DHT22;27639;48.674;9.242;2023-05-07T01:48:56;18.10;55.60
21502;DHT22;27639;48.674;9.242;2023-05-07T01:51:22;18.00;55.60
21502;DHT22;27639;48.674;9.242;2023-05-07T01:53:48;18.00;55.60
21502;DHT22;27639;48.674;9.242;2023-05-07T01:56:17;18.00;55.70
21502;DHT22;27639;48.674;9.242;2023-05-07T01:58:44;18.00;55.90
21502;DHT22;27639;48.674;9.242;2023-05-07T02:01:11;17.90;55.90
21502;DHT22;27639;48.674;9.242;2023-05-07T02:03:36;17.90;55.90
21502;DHT22;27639;48.674;9.242;2023-05-07T02:06:02;17.80;55.90
21502;DHT22;27639;48.674;9.242;2023-05-07T02:08:27;17.90;56.00
21502;DHT22;27639;48.674;9.242;2023-05-07T02:10:53;17.80;56.00
21502;DHT22;27639;48.674;9.242;2023-05-07T02:13:19;17.80;56.00
21502;DHT22;27639;48.674;9.242;2023-05-07T02:15:45;17.80;56.10
21502;DHT22;27639;48.674;9.242;2023-05-07T02:18:15;17.80;56.20
21502;DHT22;27639;48.674;9.242;2023-05-07T02:20:41;17.80;56.30
21502;DHT22;27639;48.674;9.242;2023-05-07T02:23:06;17.70;56.20
21502;DHT22;27639;48.674;9.242;2023-05-07T02:25:32;17.70;56.30
21502;DHT22;27639;48.674;9.242;2023-05-07T02:27:57;17.70;56.40
21502;DHT22;27639;48.674;9.242;2023-05-07T02:30:24;17.70;56.40
21502;DHT22;27639;48.674;9.242;2023-05-07T02:32:50;17.70;56.40
21502;DHT22;27639;48.674;9.242;2023-05-07T02:35:16;17.80;56.60
21502;DHT22;27639;48.674;9.242;2023-05-07T02:37:41;17.80;56.60
21502;DHT22;27639;48.674;9.242;2023-05-07T02:40:07;17.70;56.50
21502;DHT22;27639;48.674;9.242;2023-05-07T02:42:33;17.70;56.50
21502;DHT22;27639;48.674;9.242;2023-05-07T02:44:58;17.70;56.50
21502;DHT22;27639;48.674;9.242;2023-05-07T02:47:24;17.70;56.50
21502;DHT22;27639;48.674;9.242;2023-05-07T02:49:52;17.60;56.50
21502;DHT22;27639;48.674;9.242;2023-05-07T02:52:18;17.60;56.50
21502;DHT22;27639;48.674;9.242;2023-05-07T02:54:43;17.50;56.40
21502;DHT22;27639;48.674;9.242;2023-05-07T02:57:09;17.50;56.40
21502;DHT22;27639;48.674;9.242;2023-05-07T02:59:35;17.50;56.40
21502;DHT22;27639;48.674;9.242;2023-05-07T03:02:01;17.50;56.40
21502;DHT22;27639;48.674;9.242;2023-05-07T03:04:26;17.50;56.40
21502;DHT22;27639;48.674;9.242;2023-05-07T03:06:52;17.50;56.40
21502;DHT22;27639;48.674;9.242;2023-05-07T03:09:17;17.40;56.30
21502;DHT22;27639;48.674;9.242;2023-05-07T03:11:43;17.40;56.50
21502;DHT22;27639;48.674;9.242;2023-05-07T03:14:09;17.40;56.60
21502;DHT22;27639;48.674;9.242;2023-05-07T03:16:34;17.50;56.70
21502;DHT22;27639;48.674;9.242;2023-05-07T03:19:00;17.40;56.70
21502;DHT22;27639;48.674;9.242;2023-05-07T03:21:25;17.40;56.80
21502;DHT22;27639;48.674;9.242;2023-05-07T03:23:51;17.40;56.90
21502;DHT22;27639;48.674;9.242;2023-05-07T03:26:17;17.30;56.90
21502;DHT22;27639;48.674;9.242;2023-05-07T03:28:43;17.30;57.00
21502;DHT22;27639;48.674;9.242;2023-05-07T03:31:08;17.30;57.10
21502;DHT22;27639;48.674;9.242;2023-05-07T03:33:34;17.30;57.10
21502;DHT22;27639;48.674;9.242;2023-05-07T03:36:02;17.30;57.10
21502;DHT22;27639;48.674;9.242;2023-05-07T03:38:28;17.20;57.10
21502;DHT22;27639;48.674;9.242;2023-05-07T03:40:53;17.20;57.10
21502;DHT22;27639;48.674;9.242;2023-05-07T03:43:19;17.10;57.00
21502;DHT22;27639;48.674;9.242;2023-05-07T03:45:45;17.10;57.00
21502;DHT22;27639;48.674;9.242;2023-05-07T03:48:10;17.00;57.00
21502;DHT22;27639;48.674;9.242;2023-05-07T03:50:36;17.00;57.20
21502;DHT22;27639;48.674;9.242;2023-05-07T03:53:01;17.00;57.20
21502;DHT22;27639;48.674;9.242;2023-05-07T03:55:27;17.00;57.20
21502;DHT22;27639;48.674;9.242;2023-05-07T03:57:52;17.00;57.20
21502;DHT22;27639;48.674;9.242;2023-05-07T04:00:18;17.00;57.20
21502;DHT22;27639;48.674;9.242;2023-05-07T04:02:45;17.00;57.20
21502;DHT22;27639;48.674;9.242;2023-05-07T04:05:10;17.00;57.20
21502;DHT22;27639;48.674;9.242;2023-05-07T04:07:37;17.00;57.20
21502;DHT22;27639;48.674;9.242;2023-05-07T04:10:03;17.00;57.20
21502;DHT22;27639;48.674;9.242;2023-05-07T04:12:28;16.90;57.10
21502;DHT22;27639;48.674;9.242;2023-05-07T04:14:54;16.90;57.10
21502;DHT22;27639;48.674;9.242;2023-05-07T04:17:20;16.90;57.10
21502;DHT22;27639;48.674;9.242;2023-05-07T04:19:45;16.80;57.20
21502;DHT22;27639;48.674;9.242;2023-05-07T04:22:12;16.80;57.20
21502;DHT22;27639;48.674;9.242;2023-05-07T04:24:37;16.80;57.20
21502;DHT22;27639;48.674;9.242;2023-05-07T04:27:03;16.80;57.30
21502;DHT22;27639;48.674;9.242;2023-05-07T04:29:28;16.90;57.70
21502;DHT22;27639;48.674;9.242;2023-05-07T04:31:54;17.10;58.30
21502;DHT22;27639;48.674;9.242;2023-05-07T04:34:21;17.30;58.20
21502;DHT22;27639;48.674;9.242;2023-05-07T04:36:47;17.50;57.20
21502;DHT22;27639;48.674;9.242;2023-05-07T04:39:13;17.60;56.50
21502;DHT22;27639;48.674;9.242;2023-05-07T04:41:39;17.70;56.30
21502;DHT22;27639;48.674;9.242;2023-05-07T04:44:04;17.70;56.00
21502;DHT22;27639;48.674;9.242;2023-05-07T04:46:31;17.70;55.90
21502;DHT22;27639;48.674;9.242;2023-05-07T04:48:56;17.80;55.90
21502;DHT22;27639;48.674;9.242;2023-05-07T04:51:22;17.80;55.70
21502;DHT22;27639;48.674;9.242;2023-05-07T04:53:49;17.80;55.70
21502;DHT22;27639;48.674;9.242;2023-05-07T04:56:14;17.70;55.70
21502;DHT22;27639;48.674;9.242;2023-05-07T04:58:40;17.70;56.50
21502;DHT22;27639;48.674;9.242;2023-05-07T05:01:05;17.70;56.20
21502;DHT22;27639;48.674;9.242;2023-05-07T05:03:31;17.80;56.50
21502;DHT22;27639;48.674;9.242;2023-05-07T05:05:57;18.00;56.70
21502;DHT22;27639;48.674;9.242;2023-05-07T05:08:24;18.30;56.00
21502;DHT22;27639;48.674;9.242;2023-05-07T05:10:50;18.30;55.20
21502;DHT22;27639;48.674;9.242;2023-05-07T05:13:16;18.40;55.30
21502;DHT22;27639;48.674;9.242;2023-05-07T05:15:41;18.50;55.70
21502;DHT22;27639;48.674;9.242;2023-05-07T05:18:07;18.80;56.00
21502;DHT22;27639;48.674;9.242;2023-05-07T05:20:32;19.30;56.50
21502;DHT22;27639;48.674;9.242;2023-05-07T05:22:58;19.90;55.60
21502;DHT22;27639;48.674;9.242;2023-05-07T05:25:24;20.50;54.50
21502;DHT22;27639;48.674;9.242;2023-05-07T05:27:49;21.00;53.90
21502;DHT22;27639;48.674;9.242;2023-05-07T05:30:15;21.60;53.20
21502;DHT22;27639;48.674;9.242;2023-05-07T05:32:41;22.30;52.40
21502;DHT22;27639;48.674;9.242;2023-05-07T05:35:07;23.10;51.50
21502;DHT22;27639;48.674;9.242;2023-05-07T05:37:32;23.90;50.10
21502;DHT22;27639;48.674;9.242;2023-05-07T05:39:58;24.70;48.10
21502;DHT22;27639;48.674;9.242;2023-05-07T05:42:23;25.30;47.10
21502;DHT22;27639;48.674;9.242;2023-05-07T05:44:49;25.90;46.10
21502;DHT22;27639;48.674;9.242;2023-05-07T05:47:15;26.40;44.90
21502;DHT22;27639;48.674;9.242;2023-05-07T05:49:40;26.80;43.90
21502;DHT22;27639;48.674;9.242;2023-05-07T05:52:06;27.20;42.60
21502;DHT22;27639;48.674;9.242;2023-05-07T05:54:31;27.30;42.20
21502;DHT22;27639;48.674;9.242;2023-05-07T05:56:57;27.50;41.60
21502;DHT22;27639;48.674;9.242;2023-05-07T05:59:23;27.70;41.80
21502;DHT22;27639;48.674;9.242;2023-05-07T06:01:48;27.50;41.10
21502;DHT22;27639;48.674;9.242;2023-05-07T06:04:14;27.40;41.60
21502;DHT22;27639;48.674;9.242;2023-05-07T06:06:40;27.20;41.40
21502;DHT22;27639;48.674;9.242;2023-05-07T06:09:05;26.90;41.40
21502;DHT22;27639;48.674;9.242;2023-05-07T06:11:31;26.60;41.90
21502;DHT22;27639;48.674;9.242;2023-05-07T06:13:57;26.60;42.60
21502;DHT22;27639;48.674;9.242;2023-05-07T06:16:24;26.50;42.40
21502;DHT22;27639;48.674;9.242;2023-05-07T06:18:50;26.40;42.40
21502;DHT22;27639;48.674;9.242;2023-05-07T06:21:16;26.40;42.10
21502;DHT22;27639;48.674;9.242;2023-05-07T06:23:41;26.40;41.60
21502;DHT22;27639;48.674;9.242;2023-05-07T06:26:07;26.40;41.50
21502;DHT22;27639;48.674;9.242;2023-05-07T06:28:33;26.40;41.40
21502;DHT22;27639;48.674;9.242;2023-05-07T06:31:18;26.30;41.20
21502;DHT22;27639;48.674;9.242;2023-05-07T06:33:46;26.10;41.40
21502;DHT22;27639;48.674;9.242;2023-05-07T06:36:11;26.00;41.50
21502;DHT22;27639;48.674;9.242;2023-05-07T06:38:37;25.80;42.00
21502;DHT22;27639;48.674;9.242;2023-05-07T06:41:03;25.70;42.50
21502;DHT22;27639;48.674;9.242;2023-05-07T06:43:28;25.80;42.70
21502;DHT22;27639;48.674;9.242;2023-05-07T06:45:54;25.80;42.30
21502;DHT22;27639;48.674;9.242;2023-05-07T06:48:19;25.80;42.40
21502;DHT22;27639;48.674;9.242;2023-05-07T06:50:45;25.70;42.50
21502;DHT22;27639;48.674;9.242;2023-05-07T06:53:11;25.60;43.30
21502;DHT22;27639;48.674;9.242;2023-05-07T06:55:36;25.60;43.40
21502;DHT22;27639;48.674;9.242;2023-05-07T06:58:03;25.60;43.20
21502;DHT22;27639;48.674;9.242;2023-05-07T07:00:29;25.50;43.00
21502;DHT22;27639;48.674;9.242;2023-05-07T07:02:55;25.30;43.40
21502;DHT22;27639;48.674;9.242;2023-05-07T07:05:21;25.10;43.80
21502;DHT22;27639;48.674;9.242;2023-05-07T07:07:46;24.90;44.20
21502;DHT22;27639;48.674;9.242;2023-05-07T07:10:23;24.80;44.70
21502;DHT22;27639;48.674;9.242;2023-05-07T07:12:49;24.70;45.20
21502;DHT22;27639;48.674;9.242;2023-05-07T07:15:15;24.60;45.50
21502;DHT22;27639;48.674;9.242;2023-05-07T07:17:41;24.60;45.20
21502;DHT22;27639;48.674;9.242;2023-05-07T07:20:07;24.70;45.30
21502;DHT22;27639;48.674;9.242;2023-05-07T07:22:33;24.70;45.80
21502;DHT22;27639;48.674;9.242;2023-05-07T07:24:59;24.70;45.40
21502;DHT22;27639;48.674;9.242;2023-05-07T07:27:24;24.70;45.30
21502;DHT22;27639;48.674;9.242;2023-05-07T07:29:50;24.70;45.30
21502;DHT22;27639;48.674;9.242;2023-05-07T07:32:16;24.60;45.40
21502;DHT22;27639;48.674;9.242;2023-05-07T07:34:41;24.50;45.90
21502;DHT22;27639;48.674;9.242;2023-05-07T07:37:07;24.40;46.40
21502;DHT22;27639;48.674;9.242;2023-05-07T07:39:33;24.50;47.00
21502;DHT22;27639;48.674;9.242;2023-05-07T07:41:59;24.70;46.90
21502;DHT22;27639;48.674;9.242;2023-05-07T07:44:25;24.80;46.50
21502;DHT22;27639;48.674;9.242;2023-05-07T07:46:51;24.80;46.60
21502;DHT22;27639;48.674;9.242;2023-05-07T07:49:16;24.90;46.40
21502;DHT22;27639;48.674;9.242;2023-05-07T07:51:42;25.00;45.80
21502;DHT22;27639;48.674;9.242;2023-05-07T07:54:08;25.10;46.10
21502;DHT22;27639;48.674;9.242;2023-05-07T07:56:33;25.10;46.50
21502;DHT22;27639;48.674;9.242;2023-05-07T07:58:59;25.10;46.20
21502;DHT22;27639;48.674;9.242;2023-05-07T08:01:25;25.10;46.10
21502;DHT22;27639;48.674;9.242;2023-05-07T08:03:51;25.10;46.10
21502;DHT22;27639;48.674;9.242;2023-05-07T08:06:17;25.20;46.60
21502;DHT22;27639;48.674;9.242;2023-05-07T08:08:43;25.20;46.20
21502;DHT22;27639;48.674;9.242;2023-05-07T08:11:09;25.20;46.20
21502;DHT22;27639;48.674;9.242;2023-05-07T08:13:34;25.30;46.40
21502;DHT22;27639;48.674;9.242;2023-05-07T08:16:00;25.40;46.30
21502;DHT22;27639;48.674;9.242;2023-05-07T08:18:26;25.60;46.00
21502;DHT22;27639;48.674;9.242;2023-05-07T08:20:53;25.50;45.90
21502;DHT22;27639;48.674;9.242;2023-05-07T08:23:19;25.60;46.20
21502;DHT22;27639;48.674;9.242;2023-05-07T08:25:44;25.70;46.50
21502;DHT22;27639;48.674;9.242;2023-05-07T08:28:10;25.70;45.90
21502;DHT22;27639;48.674;9.242;2023-05-07T08:30:36;25.90;45.80
21502;DHT22;27639;48.674;9.242;2023-05-07T08:33:01;26.00;45.80
21502;DHT22;27639;48.674;9.242;2023-05-07T08:35:27;26.10;44.70
21502;DHT22;27639;48.674;9.242;2023-05-07T08:37:53;26.20;44.70
21502;DHT22;27639;48.674;9.242;2023-05-07T08:40:19;26.40;44.50
21502;DHT22;27639;48.674;9.242;2023-05-07T08:42:48;26.50;44.60
21502;DHT22;27639;48.674;9.242;2023-05-07T08:45:15;26.70;45.10
21502;DHT22;27639;48.674;9.242;2023-05-07T08:47:44;26.80;44.50
21502;DHT22;27639;48.674;9.242;2023-05-07T08:50:13;26.90;44.70
21502;DHT22;27639;48.674;9.242;2023-05-07T08:52:41;27.10;44.30
21502;DHT22;27639;48.674;9.242;2023-05-07T08:55:08;27.20;43.70
21502;DHT22;27639;48.674;9.242;2023-05-07T08:57:34;27.20;44.30
21502;DHT22;27639;48.674;9.242;2023-05-07T09:00:00;27.40;44.30
21502;DHT22;27639;48.674;9.242;2023-05-07T09:02:25;27.40;43.80
21502;DHT22;27639;48.674;9.242;2023-05-07T09:04:51;27.60;43.40
21502;DHT22;27639;48.674;9.242;2023-05-07T09:07:19;27.50;43.20
21502;DHT22;27639;48.674;9.242;2023-05-07T09:09:45;27.50;43.20
21502;DHT22;27639;48.674;9.242;2023-05-07T09:12:10;27.50;44.00
21502;DHT22;27639;48.674;9.242;2023-05-07T09:14:36;27.50;44.00
21502;DHT22;27639;48.674;9.242;2023-05-07T09:17:01;27.70;44.10
21502;DHT22;27639;48.674;9.242;2023-05-07T09:19:27;27.80;43.10
21502;DHT22;27639;48.674;9.242;2023-05-07T09:22:03;27.80;43.10
21502;DHT22;27639;48.674;9.242;2023-05-07T09:24:30;28.00;42.90
21502;DHT22;27639;48.674;9.242;2023-05-07T09:27:00;28.10;42.50
21502;DHT22;27639;48.674;9.242;2023-05-07T09:29:26;28.20;42.30
21502;DHT22;27639;48.674;9.242;2023-05-07T09:31:54;28.20;41.60
21502;DHT22;27639;48.674;9.242;2023-05-07T09:34:20;28.30;42.20
21502;DHT22;27639;48.674;9.242;2023-05-07T09:36:46;28.30;41.60
21502;DHT22;27639;48.674;9.242;2023-05-07T09:39:12;28.40;42.90
21502;DHT22;27639;48.674;9.242;2023-05-07T09:41:45;28.30;42.20
21502;DHT22;27639;48.674;9.242;2023-05-07T09:44:12;28.30;42.50
21502;DHT22;27639;48.674;9.242;2023-05-07T09:46:42;28.30;42.00
21502;DHT22;27639;48.674;9.242;2023-05-07T09:49:12;28.30;42.00
21502;DHT22;27639;48.674;9.242;2023-05-07T09:51:48;28.30;41.60
21502;DHT22;27639;48.674;9.242;2023-05-07T09:54:15;28.50;41.10
21502;DHT22;27639;48.674;9.242;2023-05-07T09:56:43;28.50;40.40
21502;DHT22;27639;48.674;9.242;2023-05-07T09:59:12;28.50;41.00
21502;DHT22;27639;48.674;9.242;2023-05-07T10:01:38;28.50;41.10
21502;DHT22;27639;48.674;9.242;2023-05-07T10:04:05;28.60;40.00
21502;DHT22;27639;48.674;9.242;2023-05-07T10:06:34;28.60;39.70
21502;DHT22;27639;48.674;9.242;2023-05-07T10:09:00;28.60;40.10
21502;DHT22;27639;48.674;9.242;2023-05-07T10:11:26;28.60;40.30
21502;DHT22;27639;48.674;9.242;2023-05-07T10:13:53;28.70;39.80
21502;DHT22;27639;48.674;9.242;2023-05-07T10:16:18;28.70;39.40
21502;DHT22;27639;48.674;9.242;2023-05-07T10:18:45;28.60;39.50
21502;DHT22;27639;48.674;9.242;2023-05-07T10:21:17;28.60;40.10
21502;DHT22;27639;48.674;9.242;2023-05-07T10:23:59;28.60;39.80
21502;DHT22;27639;48.674;9.242;2023-05-07T10:26:27;28.70;40.10
21502;DHT22;27639;48.674;9.242;2023-05-07T10:29:04;28.70;39.60
21502;DHT22;27639;48.674;9.242;2023-05-07T10:34:24;28.60;39.20
21502;DHT22;27639;48.674;9.242;2023-05-07T10:36:52;28.60;39.40
21502;DHT22;27639;48.674;9.242;2023-05-07T10:39:20;28.60;39.50
21502;DHT22;27639;48.674;9.242;2023-05-07T10:41:45;28.80;38.70
21502;DHT22;27639;48.674;9.242;2023-05-07T10:44:11;28.90;38.30
21502;DHT22;27639;48.674;9.242;2023-05-07T10:46:37;29.00;38.80
21502;DHT22;27639;48.674;9.242;2023-05-07T10:51:30;29.10;39.00
21502;DHT22;27639;48.674;9.242;2023-05-07T10:54:22;29.30;38.60
21502;DHT22;27639;48.674;9.242;2023-05-07T10:56:49;29.40;39.00
21502;DHT22;27639;48.674;9.242;2023-05-07T11:04:25;29.50;37.80
21502;DHT22;27639;48.674;9.242;2023-05-07T11:09:53;29.70;38.30
21502;DHT22;27639;48.674;9.242;2023-05-07T11:15:08;29.90;37.80
21502;DHT22;27639;48.674;9.242;2023-05-07T11:17:51;29.90;36.90
21502;DHT22;27639;48.674;9.242;2023-05-07T11:20:17;29.90;37.60
21502;DHT22;27639;48.674;9.242;2023-05-07T11:22:43;30.00;37.30
21502;DHT22;27639;48.674;9.242;2023-05-07T11:25:09;29.90;37.30
21502;DHT22;27639;48.674;9.242;2023-05-07T11:27:34;29.80;37.20
21502;DHT22;27639;48.674;9.242;2023-05-07T11:30:00;29.90;37.40
21502;DHT22;27639;48.674;9.242;2023-05-07T11:32:30;29.90;37.50
21502;DHT22;27639;48.674;9.242;2023-05-07T11:34:58;30.10;36.80
21502;DHT22;27639;48.674;9.242;2023-05-07T11:37:25;30.10;36.80
21502;DHT22;27639;48.674;9.242;2023-05-07T11:40:06;30.10;37.10
21502;DHT22;27639;48.674;9.242;2023-05-07T11:42:35;30.10;36.00
21502;DHT22;27639;48.674;9.242;2023-05-07T11:45:01;30.00;36.40
21502;DHT22;27639;48.674;9.242;2023-05-07T11:47:30;30.00;36.60
21502;DHT22;27639;48.674;9.242;2023-05-07T11:49:56;30.10;36.20
21502;DHT22;27639;48.674;9.242;2023-05-07T11:52:23;30.20;35.70
21502;DHT22;27639;48.674;9.242;2023-05-07T11:54:53;30.20;35.70
21502;DHT22;27639;48.674;9.242;2023-05-07T11:57:21;30.00;35.00
21502;DHT22;27639;48.674;9.242;2023-05-07T11:59:47;29.90;35.50
21502;DHT22;27639;48.674;9.242;2023-05-07T12:02:17;29.90;35.60
21502;DHT22;27639;48.674;9.242;2023-05-07T12:04:43;29.70;35.90
21502;DHT22;27639;48.674;9.242;2023-05-07T12:07:13;29.70;35.70
21502;DHT22;27639;48.674;9.242;2023-05-07T12:09:39;29.60;35.30
21502;DHT22;27639;48.674;9.242;2023-05-07T12:12:05;29.50;35.70
21502;DHT22;27639;48.674;9.242;2023-05-07T12:14:31;29.40;35.60
21502;DHT22;27639;48.674;9.242;2023-05-07T12:17:00;29.30;35.40
21502;DHT22;27639;48.674;9.242;2023-05-07T12:19:29;29.20;35.70
21502;DHT22;27639;48.674;9.242;2023-05-07T12:21:55;29.10;36.10
21502;DHT22;27639;48.674;9.242;2023-05-07T12:24:22;29.00;36.00
21502;DHT22;27639;48.674;9.242;2023-05-07T12:26:48;28.90;36.40
21502;DHT22;27639;48.674;9.242;2023-05-07T12:29:14;28.60;36.90
21502;DHT22;27639;48.674;9.242;2023-05-07T12:31:43;28.40;37.40
21502;DHT22;27639;48.674;9.242;2023-05-07T12:34:11;28.20;37.60
21502;DHT22;27639;48.674;9.242;2023-05-07T12:36:40;28.00;37.40
21502;DHT22;27639;48.674;9.242;2023-05-07T12:39:06;27.90;37.40
21502;DHT22;27639;48.674;9.242;2023-05-07T12:41:57;27.70;37.30
21502;DHT22;27639;48.674;9.242;2023-05-07T12:44:23;27.60;37.70
21502;DHT22;27639;48.674;9.242;2023-05-07T12:46:49;27.50;38.10
21502;DHT22;27639;48.674;9.242;2023-05-07T12:49:15;27.30;38.10
21502;DHT22;27639;48.674;9.242;2023-05-07T12:51:41;27.00;39.20
21502;DHT22;27639;48.674;9.242;2023-05-07T12:54:06;26.80;39.90
21502;DHT22;27639;48.674;9.242;2023-05-07T12:56:35;26.60;40.10
21502;DHT22;27639;48.674;9.242;2023-05-07T12:59:00;26.50;40.20
21502;DHT22;27639;48.674;9.242;2023-05-07T13:01:30;26.30;41.10
21502;DHT22;27639;48.674;9.242;2023-05-07T13:03:59;26.00;41.90
21502;DHT22;27639;48.674;9.242;2023-05-07T13:06:25;25.80;42.20
21502;DHT22;27639;48.674;9.242;2023-05-07T13:08:51;25.50;42.50
21502;DHT22;27639;48.674;9.242;2023-05-07T13:11:17;25.30;42.50
21502;DHT22;27639;48.674;9.242;2023-05-07T13:13:42;25.10;42.20
21502;DHT22;27639;48.674;9.242;2023-05-07T13:16:09;24.90;42.40
21502;DHT22;27639;48.674;9.242;2023-05-07T13:18:37;24.70;42.70
21502;DHT22;27639;48.674;9.242;2023-05-07T13:21:03;24.60;42.80
21502;DHT22;27639;48.674;9.242;2023-05-07T13:23:29;24.50;43.40
21502;DHT22;27639;48.674;9.242;2023-05-07T13:25:54;24.40;43.80
21502;DHT22;27639;48.674;9.242;2023-05-07T13:28:21;24.20;44.20
21502;DHT22;27639;48.674;9.242;2023-05-07T13:30:47;24.00;44.90
21502;DHT22;27639;48.674;9.242;2023-05-07T13:33:13;23.80;45.40
21502;DHT22;27639;48.674;9.242;2023-05-07T13:35:39;23.60;46.20
21502;DHT22;27639;48.674;9.242;2023-05-07T13:38:05;23.40;47.20
21502;DHT22;27639;48.674;9.242;2023-05-07T13:40:31;23.30;48.00
21502;DHT22;27639;48.674;9.242;2023-05-07T13:42:57;23.10;48.80
21502;DHT22;27639;48.674;9.242;2023-05-07T13:45:24;23.00;49.50
21502;DHT22;27639;48.674;9.242;2023-05-07T13:47:51;22.90;49.50
21502;DHT22;27639;48.674;9.242;2023-05-07T13:50:17;22.80;50.10
21502;DHT22;27639;48.674;9.242;2023-05-07T13:52:43;22.70;50.20
21502;DHT22;27639;48.674;9.242;2023-05-07T13:55:18;22.50;51.50
21502;DHT22;27639;48.674;9.242;2023-05-07T13:57:45;22.40;51.40
21502;DHT22;27639;48.674;9.242;2023-05-07T14:00:11;22.10;52.30
21502;DHT22;27639;48.674;9.242;2023-05-07T14:02:37;22.00;52.40
21502;DHT22;27639;48.674;9.242;2023-05-07T14:05:03;21.70;52.90
21502;DHT22;27639;48.674;9.242;2023-05-07T14:07:29;21.50;53.10
21502;DHT22;27639;48.674;9.242;2023-05-07T14:09:55;21.40;53.60
21502;DHT22;27639;48.674;9.242;2023-05-07T14:12:20;21.20;54.20
21502;DHT22;27639;48.674;9.242;2023-05-07T14:14:46;21.00;54.60
21502;DHT22;27639;48.674;9.242;2023-05-07T14:17:12;20.90;55.10
21502;DHT22;27639;48.674;9.242;2023-05-07T14:19:37;20.80;55.70
21502;DHT22;27639;48.674;9.242;2023-05-07T14:22:03;20.80;56.20
21502;DHT22;27639;48.674;9.242;2023-05-07T14:24:29;20.80;56.50
21502;DHT22;27639;48.674;9.242;2023-05-07T14:26:54;20.70;56.50
21502;DHT22;27639;48.674;9.242;2023-05-07T14:29:20;20.70;56.90
21502;DHT22;27639;48.674;9.242;2023-05-07T14:31:46;20.70;57.10
21502;DHT22;27639;48.674;9.242;2023-05-07T14:34:11;20.60;58.00
21502;DHT22;27639;48.674;9.242;2023-05-07T14:36:37;20.60;57.70
21502;DHT22;27639;48.674;9.242;2023-05-07T14:39:03;20.70;57.80
21502;DHT22;27639;48.674;9.242;2023-05-07T14:41:29;20.60;58.10
21502;DHT22;27639;48.674;9.242;2023-05-07T14:43:55;20.60;58.10
21502;DHT22;27639;48.674;9.242;2023-05-07T14:46:20;20.60;58.30
21502;DHT22;27639;48.674;9.242;2023-05-07T14:48:46;20.60;58.50
21502;DHT22;27639;48.674;9.242;2023-05-07T14:51:12;20.60;58.90
21502;DHT22;27639;48.674;9.242;2023-05-07T14:53:38;20.60;58.80
21502;DHT22;27639;48.674;9.242;2023-05-07T14:56:04;20.70;59.00
21502;DHT22;27639;48.674;9.242;2023-05-07T14:58:30;20.70;59.10
21502;DHT22;27639;48.674;9.242;2023-05-07T15:00:56;20.60;59.30
21502;DHT22;27639;48.674;9.242;2023-05-07T15:03:22;20.60;59.70
21502;DHT22;27639;48.674;9.242;2023-05-07T15:05:48;20.60;59.20
21502;DHT22;27639;48.674;9.242;2023-05-07T15:08:16;20.70;59.90
21502;DHT22;27639;48.674;9.242;2023-05-07T15:10:42;20.70;60.20
21502;DHT22;27639;48.674;9.242;2023-05-07T15:13:09;20.80;60.40
21502;DHT22;27639;48.674;9.242;2023-05-07T15:15:34;20.70;60.30
21502;DHT22;27639;48.674;9.242;2023-05-07T15:18:00;20.70;60.60
21502;DHT22;27639;48.674;9.242;2023-05-07T15:20:26;20.70;60.50
21502;DHT22;27639;48.674;9.242;2023-05-07T15:22:52;20.70;60.60
21502;DHT22;27639;48.674;9.242;2023-05-07T15:25:17;20.70;60.60
21502;DHT22;27639;48.674;9.242;2023-05-07T15:27:43;20.70;60.60
21502;DHT22;27639;48.674;9.242;2023-05-07T15:30:09;20.60;60.50
21502;DHT22;27639;48.674;9.242;2023-05-07T15:32:36;20.70;61.00
21502;DHT22;27639;48.674;9.242;2023-05-07T15:35:03;20.70;61.30
21502;DHT22;27639;48.674;9.242;2023-05-07T15:37:30;20.70;60.90
21502;DHT22;27639;48.674;9.242;2023-05-07T15:39:56;20.70;61.00
21502;DHT22;27639;48.674;9.242;2023-05-07T15:42:22;20.70;61.60